sensor_id;sensor_type;location;lat;lon;timestamp;pressure;altitude;pressure_sealevel;temperature;humidity
26978;BME280;56314;48.088;11.642;2022-07-01T00:00:40;95295.69;;;18.91;78.28
26978;BME280;56314;48.088;11.642;2022-07-01T00:03:05;95294.69;;;18.92;78.84
26978;BME280;56314;48.088;11.642;2022-07-01T00:05:30;95290.69;;;18.96;79.44
26978;BME280;56314;48.088;11.642;2022-07-01T00:07:56;95291.66;;;19.03;80.01
26978;BME280;56314;48.088;11.642;2022-07-01T00:10:22;95300.78;;;19.09;79.76
26978;BME280;56314;48.088;11.642;2022-07-01T00:12:47;95301.59;;;19.10;80.48
26978;BME280;56314;48.088;11.642;2022-07-01T00:15:13;95287.00;;;19.05;80.55
26978;BME280;56314;48.088;11.642;2022-07-01T00:17:38;95299.13;;;19.08;81.14
26978;BME280;56314;48.088;11.642;2022-07-01T00:20:06;95303.25;;;19.11;81.86
26978;BME280;56314;48.088;11.642;2022-07-01T00:22:35;95304.56;;;19.15;81.83
26978;BME280;56314;48.088;11.642;2022-07-01T00:25:00;95314.75;;;19.11;82.29
26978;BME280;56314;48.088;11.642;2022-07-01T00:27:25;95319.03;;;19.20;82.50
26978;BME280;56314;48.088;11.642;2022-07-01T00:29:51;95321.34;;;19.23;81.89
26978;BME280;56314;48.088;11.642;2022-07-01T00:32:17;95319.03;;;19.20;81.45
26978;BME280;56314;48.088;11.642;2022-07-01T00:34:42;95326.09;;;19.36;81.62
26978;BME280;56314;48.088;11.642;2022-07-01T00:37:07;95340.75;;;19.32;80.22
26978;BME280;56314;48.088;11.642;2022-07-01T00:39:33;95337.25;;;19.32;79.17
26978;BME280;56314;48.088;11.642;2022-07-01T00:42:01;95336.41;;;19.31;77.24
26978;BME280;56314;48.088;11.642;2022-07-01T00:44:27;95338.75;;;19.34;75.82
26978;BME280;56314;48.088;11.642;2022-07-01T00:46:53;95338.06;;;19.41;75.60
26978;BME280;56314;48.088;11.642;2022-07-01T00:49:19;95339.88;;;19.40;74.50
26978;BME280;56314;48.088;11.642;2022-07-01T00:51:44;95342.72;;;19.38;73.51
26978;BME280;56314;48.088;11.642;2022-07-01T00:54:10;95342.25;;;19.35;73.33
26978;BME280;56314;48.088;11.642;2022-07-01T00:56:37;95344.38;;;19.40;73.17
26978;BME280;56314;48.088;11.642;2022-07-01T00:59:02;95348.34;;;19.44;73.35
26978;BME280;56314;48.088;11.642;2022-07-01T01:01:28;95348.19;;;19.45;73.46
26978;BME280;56314;48.088;11.642;2022-07-01T01:03:54;95354.78;;;19.49;73.02
26978;BME280;56314;48.088;11.642;2022-07-01T01:06:19;95363.97;;;19.47;72.61
26978;BME280;56314;48.088;11.642;2022-07-01T01:08:46;95363.16;;;19.46;72.12
26978;BME280;56314;48.088;11.642;2022-07-01T01:11:12;95376.94;;;19.50;72.66
26978;BME280;56314;48.088;11.642;2022-07-01T01:13:38;95377.63;;;19.44;71.34
26978;BME280;56314;48.088;11.642;2022-07-01T01:16:04;95368.63;;;19.45;71.40
26978;BME280;56314;48.088;11.642;2022-07-01T01:18:29;95360.84;;;19.43;68.84
26978;BME280;56314;48.088;11.642;2022-07-01T01:20:55;95364.34;;;19.35;68.99
26978;BME280;56314;48.088;11.642;2022-07-01T01:23:20;95368.03;;;19.34;68.76
26978;BME280;56314;48.088;11.642;2022-07-01T01:25:49;95359.22;;;19.34;69.40
26978;BME280;56314;48.088;11.642;2022-07-01T01:28:15;95366.69;;;19.38;69.62
26978;BME280;56314;48.088;11.642;2022-07-01T01:30:40;95374.66;;;19.38;70.78
26978;BME280;56314;48.088;11.642;2022-07-01T01:33:05;95368.06;;;19.26;71.60
26978;BME280;56314;48.088;11.642;2022-07-01T01:35:34;95367.06;;;19.27;72.90
26978;BME280;56314;48.088;11.642;2022-07-01T01:37:59;95368.88;;;19.27;72.64
26978;BME280;56314;48.088;11.642;2022-07-01T01:40:25;95358.75;;;19.22;71.81
26978;BME280;56314;48.088;11.642;2022-07-01T01:42:50;95346.44;;;19.21;70.99
26978;BME280;56314;48.088;11.642;2022-07-01T01:45:16;95346.31;;;19.14;70.79
26978;BME280;56314;48.088;11.642;2022-07-01T01:47:41;95338.19;;;19.07;70.89
26978;BME280;56314;48.088;11.642;2022-07-01T01:50:08;95341.03;;;19.06;70.74
26978;BME280;56314;48.088;11.642;2022-07-01T01:52:34;95335.38;;;19.01;71.80
26978;BME280;56314;48.088;11.642;2022-07-01T01:55:00;95335.44;;;18.84;71.38
26978;BME280;56314;48.088;11.642;2022-07-01T01:57:25;95337.63;;;18.81;72.21
26978;BME280;56314;48.088;11.642;2022-07-01T01:59:50;95334.63;;;18.75;71.96
26978;BME280;56314;48.088;11.642;2022-07-01T02:02:16;95332.81;;;18.76;73.30
26978;BME280;56314;48.088;11.642;2022-07-01T02:04:41;95336.13;;;18.70;72.69
26978;BME280;56314;48.088;11.642;2022-07-01T02:07:07;95336.94;;;18.70;72.75
26978;BME280;56314;48.088;11.642;2022-07-01T02:09:32;95332.34;;;18.64;73.34
26978;BME280;56314;48.088;11.642;2022-07-01T02:11:57;95347.47;;;18.64;73.68
26978;BME280;56314;48.088;11.642;2022-07-01T02:14:23;95363.44;;;18.64;73.68
26978;BME280;56314;48.088;11.642;2022-07-01T02:16:48;95355.09;;;18.67;74.35
26978;BME280;56314;48.088;11.642;2022-07-01T02:19:13;95366.91;;;18.64;74.75
26978;BME280;56314;48.088;11.642;2022-07-01T02:21:39;95368.38;;;18.67;74.29
26978;BME280;56314;48.088;11.642;2022-07-01T02:24:04;95372.72;;;18.68;74.35
26978;BME280;56314;48.088;11.642;2022-07-01T02:26:30;95387.50;;;18.70;75.38
26978;BME280;56314;48.088;11.642;2022-07-01T02:28:55;95393.31;;;18.66;74.39
26978;BME280;56314;48.088;11.642;2022-07-01T02:31:21;95390.50;;;18.59;74.73
26978;BME280;56314;48.088;11.642;2022-07-01T02:33:46;95388.34;;;18.63;75.28
26978;BME280;56314;48.088;11.642;2022-07-01T02:36:12;95396.00;;;18.57;75.14
26978;BME280;56314;48.088;11.642;2022-07-01T02:38:37;95406.31;;;18.52;75.31
26978;BME280;56314;48.088;11.642;2022-07-01T02:41:02;95399.97;;;18.53;75.37
26978;BME280;56314;48.088;11.642;2022-07-01T02:43:28;95409.97;;;18.59;76.45
26978;BME280;56314;48.088;11.642;2022-07-01T02:45:56;95406.13;;;18.62;75.77
26978;BME280;56314;48.088;11.642;2022-07-01T02:48:21;95409.63;;;18.63;75.14
26978;BME280;56314;48.088;11.642;2022-07-01T02:50:47;95415.59;;;18.56;75.50
26978;BME280;56314;48.088;11.642;2022-07-01T02:53:12;95425.56;;;18.54;75.84
26978;BME280;56314;48.088;11.642;2022-07-01T02:55:37;95416.59;;;18.55;76.26
26978;BME280;56314;48.088;11.642;2022-07-01T02:58:03;95419.94;;;18.57;76.25
26978;BME280;56314;48.088;11.642;2022-07-01T03:00:29;95417.09;;;18.59;76.41
26978;BME280;56314;48.088;11.642;2022-07-01T03:02:55;95412.47;;;18.53;76.33
26978;BME280;56314;48.088;11.642;2022-07-01T03:05:21;95419.44;;;18.54;76.46
26978;BME280;56314;48.088;11.642;2022-07-01T03:07:46;95413.63;;;18.58;76.86
26978;BME280;56314;48.088;11.642;2022-07-01T03:10:12;95415.47;;;18.58;76.92
26978;BME280;56314;48.088;11.642;2022-07-01T03:12:37;95412.94;;;18.56;76.79
26978;BME280;56314;48.088;11.642;2022-07-01T03:15:08;95414.94;;;18.54;76.93
26978;BME280;56314;48.088;11.642;2022-07-01T03:17:36;95432.06;;;18.52;77.15
26978;BME280;56314;48.088;11.642;2022-07-01T03:20:02;95438.06;;;18.54;77.89
26978;BME280;56314;48.088;11.642;2022-07-01T03:22:30;95434.06;;;18.58;77.48
26978;BME280;56314;48.088;11.642;2022-07-01T03:24:56;95435.72;;;18.59;77.83
26978;BME280;56314;48.088;11.642;2022-07-01T03:27:22;95439.06;;;18.53;77.32
26978;BME280;56314;48.088;11.642;2022-07-01T03:29:48;95435.56;;;18.52;77.39
26978;BME280;56314;48.088;11.642;2022-07-01T03:32:13;95436.03;;;18.48;77.32
26978;BME280;56314;48.088;11.642;2022-07-01T03:34:40;95429.09;;;18.55;78.27
26978;BME280;56314;48.088;11.642;2022-07-01T03:37:07;95432.91;;;18.52;77.59
26978;BME280;56314;48.088;11.642;2022-07-01T03:39:34;95436.72;;;18.50;77.44
26978;BME280;56314;48.088;11.642;2022-07-01T03:42:00;95435.22;;;18.47;77.95
26978;BME280;56314;48.088;11.642;2022-07-01T03:44:26;95434.38;;;18.46;77.71
26978;BME280;56314;48.088;11.642;2022-07-01T03:46:52;95442.53;;;18.53;78.96
26978;BME280;56314;48.088;11.642;2022-07-01T03:49:18;95444.72;;;18.58;78.20
26978;BME280;56314;48.088;11.642;2022-07-01T03:51:43;95445.84;;;18.55;78.39
26978;BME280;56314;48.088;11.642;2022-07-01T03:54:09;95441.72;;;18.53;77.00
26978;BME280;56314;48.088;11.642;2022-07-01T03:56:52;95445.19;;;18.53;77.45
26978;BME280;56314;48.088;11.642;2022-07-01T03:59:18;95446.69;;;18.56;78.15
26978;BME280;56314;48.088;11.642;2022-07-01T04:01:43;95449.00;;;18.59;78.17
26978;BME280;56314;48.088;11.642;2022-07-01T04:04:09;95442.19;;;18.65;77.17
26978;BME280;56314;48.088;11.642;2022-07-01T04:06:35;95449.50;;;18.71;77.14
26978;BME280;56314;48.088;11.642;2022-07-01T04:09:01;95446.34;;;18.67;77.18
26978;BME280;56314;48.088;11.642;2022-07-01T04:11:26;95451.00;;;18.65;78.08
26978;BME280;56314;48.088;11.642;2022-07-01T04:13:52;95439.88;;;18.61;77.76
26978;BME280;56314;48.088;11.642;2022-07-01T04:16:18;95442.53;;;18.61;77.43
26978;BME280;56314;48.088;11.642;2022-07-01T04:18:44;95435.72;;;18.67;77.85
26978;BME280;56314;48.088;11.642;2022-07-01T04:21:10;95433.56;;;18.63;77.68
26978;BME280;56314;48.088;11.642;2022-07-01T04:23:54;95423.06;;;18.61;77.43
26978;BME280;56314;48.088;11.642;2022-07-01T04:26:22;95419.59;;;18.69;76.77
26978;BME280;56314;48.088;11.642;2022-07-01T04:28:47;95404.47;;;18.61;78.78
26978;BME280;56314;48.088;11.642;2022-07-01T04:31:13;95408.28;;;18.58;78.91
26978;BME280;56314;48.088;11.642;2022-07-01T04:33:38;95413.97;;;18.64;79.78
26978;BME280;56314;48.088;11.642;2022-07-01T04:36:03;95412.75;;;18.74;78.35
26978;BME280;56314;48.088;11.642;2022-07-01T04:38:29;95421.56;;;18.67;77.07
26978;BME280;56314;48.088;11.642;2022-07-01T04:40:54;95428.41;;;18.69;78.31
26978;BME280;56314;48.088;11.642;2022-07-01T04:43:38;95425.75;;;18.61;77.66
26978;BME280;56314;48.088;11.642;2022-07-01T04:46:04;95417.28;;;18.57;77.26
26978;BME280;56314;48.088;11.642;2022-07-01T04:48:29;95415.59;;;18.65;77.83
26978;BME280;56314;48.088;11.642;2022-07-01T04:50:55;95414.94;;;18.71;78.81
26978;BME280;56314;48.088;11.642;2022-07-01T04:53:20;95410.78;;;18.68;79.75
26978;BME280;56314;48.088;11.642;2022-07-01T04:55:45;95403.94;;;18.82;77.52
26978;BME280;56314;48.088;11.642;2022-07-01T04:58:12;95395.28;;;18.80;77.25
26978;BME280;56314;48.088;11.642;2022-07-01T05:00:38;95391.31;;;18.84;76.41
26978;BME280;56314;48.088;11.642;2022-07-01T05:03:03;95378.47;;;18.88;76.36
26978;BME280;56314;48.088;11.642;2022-07-01T05:05:28;95366.00;;;18.88;74.55
26978;BME280;56314;48.088;11.642;2022-07-01T05:07:54;95379.81;;;18.92;76.35
26978;BME280;56314;48.088;11.642;2022-07-01T05:10:19;95373.78;;;19.06;73.73
26978;BME280;56314;48.088;11.642;2022-07-01T05:12:45;95382.44;;;19.08;74.60
26978;BME280;56314;48.088;11.642;2022-07-01T05:15:10;95385.72;;;19.19;73.00
26978;BME280;56314;48.088;11.642;2022-07-01T05:17:37;95394.84;;;19.25;72.86
26978;BME280;56314;48.088;11.642;2022-07-01T05:20:22;95401.63;;;19.35;72.59
26978;BME280;56314;48.088;11.642;2022-07-01T05:23:05;95402.50;;;19.28;72.74
26978;BME280;56314;48.088;11.642;2022-07-01T05:25:31;95392.03;;;19.26;74.27
26978;BME280;56314;48.088;11.642;2022-07-01T05:27:56;95389.31;;;19.34;74.66
26978;BME280;56314;48.088;11.642;2022-07-01T05:30:21;95382.00;;;19.36;74.21
26978;BME280;56314;48.088;11.642;2022-07-01T05:32:47;95376.00;;;19.34;76.16
26978;BME280;56314;48.088;11.642;2022-07-01T05:35:12;95377.19;;;19.32;75.41
26978;BME280;56314;48.088;11.642;2022-07-01T05:37:39;95366.38;;;19.33;75.47
26978;BME280;56314;48.088;11.642;2022-07-01T05:40:05;95371.81;;;19.48;75.89
26978;BME280;56314;48.088;11.642;2022-07-01T05:42:31;95396.41;;;19.50;75.88
26978;BME280;56314;48.088;11.642;2022-07-01T05:44:57;95424.88;;;19.50;74.78
26978;BME280;56314;48.088;11.642;2022-07-01T05:47:22;95432.41;;;19.38;72.24
26978;BME280;56314;48.088;11.642;2022-07-01T05:49:47;95442.41;;;19.36;73.62
26978;BME280;56314;48.088;11.642;2022-07-01T05:52:13;95442.56;;;19.34;74.54
26978;BME280;56314;48.088;11.642;2022-07-01T05:54:38;95444.03;;;19.37;73.79
26978;BME280;56314;48.088;11.642;2022-07-01T05:57:04;95463.53;;;19.37;73.71
26978;BME280;56314;48.088;11.642;2022-07-01T05:59:29;95466.31;;;19.52;75.18
26978;BME280;56314;48.088;11.642;2022-07-01T06:01:54;95467.16;;;19.53;73.77
26978;BME280;56314;48.088;11.642;2022-07-01T06:04:20;95462.78;;;19.60;73.61
26978;BME280;56314;48.088;11.642;2022-07-01T06:06:45;95457.94;;;19.64;73.91
26978;BME280;56314;48.088;11.642;2022-07-01T06:09:10;95457.59;;;19.67;72.97
26978;BME280;56314;48.088;11.642;2022-07-01T06:11:36;95461.53;;;19.79;73.27
26978;BME280;56314;48.088;11.642;2022-07-01T06:14:01;95472.81;;;20.44;69.87
26978;BME280;56314;48.088;11.642;2022-07-01T06:16:27;95480.25;;;20.72;69.16
26978;BME280;56314;48.088;11.642;2022-07-01T06:18:52;95474.47;;;20.69;67.58
26978;BME280;56314;48.088;11.642;2022-07-01T06:21:17;95479.09;;;20.75;67.66
26978;BME280;56314;48.088;11.642;2022-07-01T06:23:43;95482.63;;;20.90;66.33
26978;BME280;56314;48.088;11.642;2022-07-01T06:26:08;95485.56;;;20.81;66.58
26978;BME280;56314;48.088;11.642;2022-07-01T06:28:33;95500.13;;;20.70;65.31
26978;BME280;56314;48.088;11.642;2022-07-01T06:30:59;95502.69;;;20.63;64.88
26978;BME280;56314;48.088;11.642;2022-07-01T06:33:24;95502.44;;;21.11;65.48
26978;BME280;56314;48.088;11.642;2022-07-01T06:35:50;95496.09;;;21.12;64.62
26978;BME280;56314;48.088;11.642;2022-07-01T06:38:16;95501.25;;;20.99;64.18
26978;BME280;56314;48.088;11.642;2022-07-01T06:40:41;95498.38;;;20.85;65.19
26978;BME280;56314;48.088;11.642;2022-07-01T06:43:07;95499.78;;;20.73;66.63
26978;BME280;56314;48.088;11.642;2022-07-01T06:45:32;95510.44;;;20.50;65.44
26978;BME280;56314;48.088;11.642;2022-07-01T06:47:58;95497.88;;;20.35;66.77
26978;BME280;56314;48.088;11.642;2022-07-01T06:50:23;95498.63;;;20.21;68.55
26978;BME280;56314;48.088;11.642;2022-07-01T06:52:48;95486.34;;;20.11;69.13
26978;BME280;56314;48.088;11.642;2022-07-01T06:55:14;95489.06;;;20.03;69.24
26978;BME280;56314;48.088;11.642;2022-07-01T06:57:39;95497.13;;;19.95;70.57
26978;BME280;56314;48.088;11.642;2022-07-01T07:00:05;95505.47;;;19.92;69.89
26978;BME280;56314;48.088;11.642;2022-07-01T07:02:31;95501.47;;;19.88;70.12
26978;BME280;56314;48.088;11.642;2022-07-01T07:04:56;95504.47;;;19.84;69.91
26978;BME280;56314;48.088;11.642;2022-07-01T07:07:24;95496.63;;;19.91;68.97
26978;BME280;56314;48.088;11.642;2022-07-01T07:09:49;95499.25;;;19.99;70.20
26978;BME280;56314;48.088;11.642;2022-07-01T07:12:15;95511.34;;;20.10;69.70
26978;BME280;56314;48.088;11.642;2022-07-01T07:14:40;95510.31;;;20.20;68.50
26978;BME280;56314;48.088;11.642;2022-07-01T07:17:07;95503.78;;;20.22;70.11
26978;BME280;56314;48.088;11.642;2022-07-01T07:19:32;95503.97;;;20.21;69.17
26978;BME280;56314;48.088;11.642;2022-07-01T07:21:57;95507.78;;;20.26;69.46
26978;BME280;56314;48.088;11.642;2022-07-01T07:24:23;95508.84;;;20.40;68.67
26978;BME280;56314;48.088;11.642;2022-07-01T07:26:48;95503.38;;;20.57;68.79
26978;BME280;56314;48.088;11.642;2022-07-01T07:29:13;95497.41;;;20.55;67.85
26978;BME280;56314;48.088;11.642;2022-07-01T07:31:39;95503.09;;;20.52;67.76
26978;BME280;56314;48.088;11.642;2022-07-01T07:34:05;95497.88;;;20.35;67.96
26978;BME280;56314;48.088;11.642;2022-07-01T07:36:30;95495.03;;;20.37;67.91
26978;BME280;56314;48.088;11.642;2022-07-01T07:38:57;95499.00;;;20.41;67.70
26978;BME280;56314;48.088;11.642;2022-07-01T07:41:22;95496.59;;;20.31;67.72
26978;BME280;56314;48.088;11.642;2022-07-01T07:43:48;95486.53;;;20.33;68.09
26978;BME280;56314;48.088;11.642;2022-07-01T07:46:14;95502.94;;;20.22;68.29
26978;BME280;56314;48.088;11.642;2022-07-01T07:48:40;95514.34;;;20.15;68.03
26978;BME280;56314;48.088;11.642;2022-07-01T07:51:07;95510.72;;;20.08;66.90
26978;BME280;56314;48.088;11.642;2022-07-01T07:53:32;95504.66;;;20.14;68.01
26978;BME280;56314;48.088;11.642;2022-07-01T07:55:58;95511.59;;;20.24;67.88
26978;BME280;56314;48.088;11.642;2022-07-01T07:58:23;95517.59;;;20.26;69.12
26978;BME280;56314;48.088;11.642;2022-07-01T08:00:48;95511.78;;;20.22;70.08
26978;BME280;56314;48.088;11.642;2022-07-01T08:03:14;95516.25;;;20.30;70.03
26978;BME280;56314;48.088;11.642;2022-07-01T08:05:39;95524.94;;;20.24;70.23
26978;BME280;56314;48.088;11.642;2022-07-01T08:08:04;95533.25;;;20.29;70.48
26978;BME280;56314;48.088;11.642;2022-07-01T08:10:30;95534.44;;;20.26;70.29
26978;BME280;56314;48.088;11.642;2022-07-01T08:12:56;95549.25;;;20.29;69.99
26978;BME280;56314;48.088;11.642;2022-07-01T08:15:23;95553.41;;;20.32;70.31
26978;BME280;56314;48.088;11.642;2022-07-01T08:17:48;95553.41;;;20.32;69.83
26978;BME280;56314;48.088;11.642;2022-07-01T08:20:14;95558.13;;;20.21;70.38
26978;BME280;56314;48.088;11.642;2022-07-01T08:22:39;95569.31;;;20.17;69.99
26978;BME280;56314;48.088;11.642;2022-07-01T08:25:05;95587.41;;;19.90;70.97
26978;BME280;56314;48.088;11.642;2022-07-01T08:27:30;95603.81;;;19.37;69.99
26978;BME280;56314;48.088;11.642;2022-07-01T08:29:56;95612.44;;;18.73;73.33
26978;BME280;56314;48.088;11.642;2022-07-01T08:32:21;95625.78;;;18.30;72.82
26978;BME280;56314;48.088;11.642;2022-07-01T08:34:49;95637.81;;;18.08;75.24
26978;BME280;56314;48.088;11.642;2022-07-01T08:37:15;95660.94;;;17.89;75.93
26978;BME280;56314;48.088;11.642;2022-07-01T08:39:40;95665.75;;;17.41;74.61
26978;BME280;56314;48.088;11.642;2022-07-01T08:42:06;95683.53;;;17.04;74.93
26978;BME280;56314;48.088;11.642;2022-07-01T08:44:32;95683.22;;;16.89;75.58
26978;BME280;56314;48.088;11.642;2022-07-01T08:46:57;95688.06;;;16.76;77.15
26978;BME280;56314;48.088;11.642;2022-07-01T08:49:22;95693.00;;;16.61;77.09
26978;BME280;56314;48.088;11.642;2022-07-01T08:51:48;95695.94;;;16.40;78.14
26978;BME280;56314;48.088;11.642;2022-07-01T08:54:13;95698.00;;;16.36;78.32
26978;BME280;56314;48.088;11.642;2022-07-01T08:56:39;95699.88;;;16.26;78.34
26978;BME280;56314;48.088;11.642;2022-07-01T08:59:21;95698.53;;;16.22;78.41
26978;BME280;56314;48.088;11.642;2022-07-01T09:01:46;95693.22;;;16.22;79.56
26978;BME280;56314;48.088;11.642;2022-07-01T09:04:14;95691.69;;;16.19;79.62
26978;BME280;56314;48.088;11.642;2022-07-01T09:06:40;95690.09;;;15.98;79.67
26978;BME280;56314;48.088;11.642;2022-07-01T09:09:20;95697.66;;;15.93;80.63
26978;BME280;56314;48.088;11.642;2022-07-01T09:11:55;95698.91;;;15.79;81.07
26978;BME280;56314;48.088;11.642;2022-07-01T09:14:23;95697.66;;;15.83;81.28
26978;BME280;56314;48.088;11.642;2022-07-01T09:16:54;95696.97;;;15.91;81.34
26978;BME280;56314;48.088;11.642;2022-07-01T09:19:21;95705.72;;;16.02;80.84
26978;BME280;56314;48.088;11.642;2022-07-01T09:21:48;95703.19;;;16.00;78.79
26978;BME280;56314;48.088;11.642;2022-07-01T09:24:34;95710.03;;;16.03;78.89
26978;BME280;56314;48.088;11.642;2022-07-01T09:27:07;95711.28;;;15.98;78.89
26978;BME280;56314;48.088;11.642;2022-07-01T09:29:46;95715.59;;;15.99;78.95
26978;BME280;56314;48.088;11.642;2022-07-01T09:32:13;95709.19;;;16.02;81.20
26978;BME280;56314;48.088;11.642;2022-07-01T09:34:41;95713.78;;;16.00;81.28
26978;BME280;56314;48.088;11.642;2022-07-01T09:37:07;95721.34;;;15.95;81.95
26978;BME280;56314;48.088;11.642;2022-07-01T09:40:05;95722.28;;;16.04;83.12
26978;BME280;56314;48.088;11.642;2022-07-01T09:42:32;95722.72;;;15.99;81.83
26978;BME280;56314;48.088;11.642;2022-07-01T09:45:05;95723.56;;;15.99;81.41
26978;BME280;56314;48.088;11.642;2022-07-01T09:47:39;95728.56;;;15.83;82.27
26978;BME280;56314;48.088;11.642;2022-07-01T09:50:07;95735.00;;;15.90;84.51
26978;BME280;56314;48.088;11.642;2022-07-01T09:52:33;95732.03;;;16.03;84.13
26978;BME280;56314;48.088;11.642;2022-07-01T09:54:59;95724.22;;;16.11;84.55
26978;BME280;56314;48.088;11.642;2022-07-01T09:57:24;95723.13;;;16.04;82.94
26978;BME280;56314;48.088;11.642;2022-07-01T09:59:50;95739.00;;;16.14;84.80
26978;BME280;56314;48.088;11.642;2022-07-01T10:02:20;95736.69;;;16.29;84.39
26978;BME280;56314;48.088;11.642;2022-07-01T10:04:56;95750.41;;;16.14;83.50
26978;BME280;56314;48.088;11.642;2022-07-01T10:07:36;95756.00;;;16.11;83.48
26978;BME280;56314;48.088;11.642;2022-07-01T10:13:02;95757.38;;;16.15;84.10
26978;BME280;56314;48.088;11.642;2022-07-01T10:15:28;95764.09;;;16.10;83.41
26978;BME280;56314;48.088;11.642;2022-07-01T10:17:54;95762.28;;;16.10;83.40
26978;BME280;56314;48.088;11.642;2022-07-01T10:20:24;95773.16;;;16.17;82.25
26978;BME280;56314;48.088;11.642;2022-07-01T10:23:00;95771.06;;;16.11;82.96
26978;BME280;56314;48.088;11.642;2022-07-01T10:25:39;95775.53;;;16.10;82.44
26978;BME280;56314;48.088;11.642;2022-07-01T10:28:25;95777.34;;;16.10;84.34
26978;BME280;56314;48.088;11.642;2022-07-01T10:31:04;95788.34;;;16.15;84.48
26978;BME280;56314;48.088;11.642;2022-07-01T10:36:13;95785.72;;;16.05;85.29
26978;BME280;56314;48.088;11.642;2022-07-01T10:43:54;95785.59;;;15.87;86.54
26978;BME280;56314;48.088;11.642;2022-07-01T10:52:04;95782.25;;;15.95;86.45
26978;BME280;56314;48.088;11.642;2022-07-01T10:59:52;95789.16;;;16.15;85.81
26978;BME280;56314;48.088;11.642;2022-07-01T11:02:27;95787.22;;;16.18;85.43
26978;BME280;56314;48.088;11.642;2022-07-01T11:04:55;95785.81;;;16.23;85.55
26978;BME280;56314;48.088;11.642;2022-07-01T11:07:24;95785.53;;;16.26;85.51
26978;BME280;56314;48.088;11.642;2022-07-01T11:09:50;95794.47;;;16.15;83.97
26978;BME280;56314;48.088;11.642;2022-07-01T11:12:15;95797.41;;;16.12;82.40
26978;BME280;56314;48.088;11.642;2022-07-01T11:14:42;95798.94;;;16.05;83.17
26978;BME280;56314;48.088;11.642;2022-07-01T11:17:08;95794.75;;;16.12;84.57
26978;BME280;56314;48.088;11.642;2022-07-01T11:19:35;95790.44;;;16.11;84.20
26978;BME280;56314;48.088;11.642;2022-07-01T11:22:00;95783.03;;;16.15;85.61
26978;BME280;56314;48.088;11.642;2022-07-01T11:24:27;95796.69;;;16.20;84.01
26978;BME280;56314;48.088;11.642;2022-07-01T11:27:06;95806.75;;;16.07;85.73
26978;BME280;56314;48.088;11.642;2022-07-01T11:29:32;95809.41;;;16.07;86.16
26978;BME280;56314;48.088;11.642;2022-07-01T11:31:57;95802.31;;;15.97;85.52
26978;BME280;56314;48.088;11.642;2022-07-01T11:34:27;95793.94;;;16.02;86.34
26978;BME280;56314;48.088;11.642;2022-07-01T11:36:54;95794.47;;;16.06;85.76
26978;BME280;56314;48.088;11.642;2022-07-01T11:39:38;95810.25;;;16.07;87.61
26978;BME280;56314;48.088;11.642;2022-07-01T11:42:06;95811.06;;;16.08;87.15
26978;BME280;56314;48.088;11.642;2022-07-01T11:44:41;95813.72;;;16.08;86.68
26978;BME280;56314;48.088;11.642;2022-07-01T11:47:07;95803.28;;;15.96;85.90
26978;BME280;56314;48.088;11.642;2022-07-01T11:49:33;95797.00;;;15.97;88.03
26978;BME280;56314;48.088;11.642;2022-07-01T11:52:02;95796.19;;;15.87;89.05
26978;BME280;56314;48.088;11.642;2022-07-01T11:54:29;95826.00;;;15.79;91.95
26978;BME280;56314;48.088;11.642;2022-07-01T11:56:54;95833.25;;;15.67;92.48
26978;BME280;56314;48.088;11.642;2022-07-01T11:59:32;95843.13;;;15.46;92.39
26978;BME280;56314;48.088;11.642;2022-07-01T12:01:58;95844.25;;;15.33;92.06
26978;BME280;56314;48.088;11.642;2022-07-01T12:04:24;95842.38;;;15.24;93.42
26978;BME280;56314;48.088;11.642;2022-07-01T12:06:49;95819.84;;;15.30;94.80
26978;BME280;56314;48.088;11.642;2022-07-01T12:09:17;95803.97;;;15.30;93.20
26978;BME280;56314;48.088;11.642;2022-07-01T12:11:47;95817.06;;;15.41;95.01
26978;BME280;56314;48.088;11.642;2022-07-01T12:14:26;95822.38;;;15.51;93.84
26978;BME280;56314;48.088;11.642;2022-07-01T12:16:55;95819.31;;;15.55;93.91
26978;BME280;56314;48.088;11.642;2022-07-01T12:19:29;95807.91;;;15.55;93.80
26978;BME280;56314;48.088;11.642;2022-07-01T12:22:05;95799.66;;;15.68;94.50
26978;BME280;56314;48.088;11.642;2022-07-01T12:24:31;95808.97;;;15.82;94.63
26978;BME280;56314;48.088;11.642;2022-07-01T12:32:11;95816.81;;;15.74;92.17
26978;BME280;56314;48.088;11.642;2022-07-01T12:34:45;95825.03;;;15.61;92.21
26978;BME280;56314;48.088;11.642;2022-07-01T12:37:24;95836.16;;;15.54;92.90
26978;BME280;56314;48.088;11.642;2022-07-01T12:39:57;95850.38;;;15.63;94.98
26978;BME280;56314;48.088;11.642;2022-07-01T12:42:31;95866.38;;;15.42;92.97
26978;BME280;56314;48.088;11.642;2022-07-01T12:45:00;95878.63;;;15.33;94.12
26978;BME280;56314;48.088;11.642;2022-07-01T12:47:31;95898.13;;;15.32;94.11
26978;BME280;56314;48.088;11.642;2022-07-01T12:50:17;95901.75;;;15.31;95.64
26978;BME280;56314;48.088;11.642;2022-07-01T12:55:39;95895.59;;;15.31;96.23
26978;BME280;56314;48.088;11.642;2022-07-01T12:58:13;95900.59;;;15.24;96.26
26978;BME280;56314;48.088;11.642;2022-07-01T13:00:40;95913.69;;;15.26;95.46
26978;BME280;56314;48.088;11.642;2022-07-01T13:03:06;95909.25;;;15.26;96.54
26978;BME280;56314;48.088;11.642;2022-07-01T13:05:34;95914.38;;;15.28;96.11
26978;BME280;56314;48.088;11.642;2022-07-01T13:08:00;95899.63;;;15.15;95.99
26978;BME280;56314;48.088;11.642;2022-07-01T13:10:25;95880.81;;;15.08;95.47
26978;BME280;56314;48.088;11.642;2022-07-01T13:12:51;95871.59;;;15.13;96.99
26978;BME280;56314;48.088;11.642;2022-07-01T13:15:17;95880.25;;;15.15;96.76
26978;BME280;56314;48.088;11.642;2022-07-01T13:17:44;95882.06;;;15.14;97.44
26978;BME280;56314;48.088;11.642;2022-07-01T13:20:10;95883.75;;;15.15;96.95